• Join FlightAware (Why Join?)
  • Login
  • US Flag GB Flag 
05:41 EDT


 

Airport Tracker/Info


-or-


 

Live Flight TrackerFlight Track Log ✈ ASQ4976 ✈ 10-May-2013 ✈ KALB - KATL

Flight Track Log - Related Links

Times and Time Zones

All times are in EDT time to prevent confusion due to time zone crossing. See the ASQ4976 flight status page for this flight to view local times or setup timezone preferences in your user account.

Time Position Orientation Groundspeed Altitude Reporting Facility
EDT Latitude Longitude Course Direction KTS MPH feet Rate Location/Type
13:06 42.7214 -73.8050 177° South 167 192 1,200  Level Boston Center
13:07 42.6653 -73.8011 177° South 213 245 3,000 1,680 Climbing Boston Center
13:08 42.6442 -73.8231 217° Southwest 253 291 3,800 2,220 Climbing Boston Center
13:09 42.6367 -73.9189 264° West 282 325 6,400 2,520 Climbing Boston Center
13:10 42.6186 -74.0172 256° West 276 318 8,900 2,100 Climbing Boston Center
13:11 42.5964 -74.1156 253° West 271 312 10,600 1,800 Climbing Boston Center
13:12 42.5761 -74.2219 256° West 309 356 12,500 2,160 Climbing Boston Center
13:13 42.5103 -74.3047 223° Southwest 317 365 15,000 2,100 Climbing Boston Center
13:14 42.4317 -74.2572 156° South 400 460 16,800 1,920 Climbing Boston Center
13:15 42.3456 -74.1622 141° Southeast 378 435 18,900 1,740 Climbing Boston Center
13:16 42.2678 -74.0731 140° Southeast 371 427 20,300 1,440 Climbing Boston Center
13:17 42.1639 -74.0394 167° South 365 420 21,800 1,500 Climbing Boston Center
13:18 42.0597 -74.0481 184° South 360 414 23,300 1,500 Climbing Boston Center
13:19 41.9511 -74.0536 182° South 371 427 24,800 1,080 Climbing Boston Center
13:21 41.6778 -74.0678 182° South 411 473 27,200 840 Climbing New York Center
13:22 41.5633 -74.0703 181° South 418 481 27,700 360 Climbing New York Center
13:23 41.4381 -74.0781 183° South 434 499 28,000 120 Climbing New York Center
13:24 41.3086 -74.0883 183° South 450 518 28,000  Level New York Center
13:25 41.1772 -74.0983 183° South 465 535 28,000  Level New York Center
13:26 41.0786 -74.1925 216° Southwest 441 507 28,000  Level New York Center
13:27 41.0042 -74.3181 232° Southwest 429 494 28,000  Level New York Center
13:28 40.9297 -74.4403 231° Southwest 429 494 28,000  Level New York Center
13:29 40.8550 -74.5572 230° Southwest 429 494 28,000  Level New York Center
13:30 40.7825 -74.6764 231° Southwest 424 488 28,000  Level New York Center
13:31 40.7100 -74.7900 230° Southwest 419 482 28,000  Level New York Center
13:32 40.6347 -74.9114 231° Southwest 419 482 28,000  Level New York Center
13:33 40.5597 -75.0297 230° Southwest 424 488 28,000  Level New York Center
13:34 40.4847 -75.1478 230° Southwest 424 488 28,000  Level New York Center
13:35 40.4094 -75.2658 230° Southwest 424 488 28,000  Level New York Center
13:36 40.3336 -75.3889 231° Southwest 431 496 28,000  Level New York Center
13:37 40.2581 -75.5061 230° Southwest 431 496 28,000  Level New York Center
13:38 40.1883 -75.6319 234° Southwest 431 496 28,000  Level New York Center
13:39 40.1225 -75.7631 237° Southwest 431 496 28,000  Level New York Center
13:40 40.0586 -75.8939 237° Southwest 436 502 28,000  Level New York Center
13:41 39.9944 -76.0222 237° Southwest 436 502 28,000  Level New York Center
13:42 39.9181 -76.1464 231° Southwest 436 502 28,000  Level New York Center
13:43 39.8422 -76.2542 228° Southwest 442 509 28,000  Level New York Center
13:44 39.7658 -76.3722 230° Southwest 447 514 28,000  Level New York Center
13:45 39.6892 -76.4903 230° Southwest 447 514 28,000  Level New York Center
13:45 39.6578 -76.5322 226° Southwest 450 518 28,000  Level Washington Center
13:46 39.5819 -76.6525 231° Southwest 450 518 28,000  Level Washington Center
13:47 39.5017 -76.7694 228° Southwest 450 518 28,000  Level Washington Center
13:48 39.4253 -76.8864 230° Southwest 445 512 28,000  Level Washington Center
13:49 39.3469 -77.0033 229° Southwest 440 506 28,000  Level Washington Center
13:50 39.2706 -77.1197 230° Southwest 440 506 28,000  Level Washington Center
13:51 39.1919 -77.2358 229° Southwest 435 501 28,000  Level Washington Center
13:52 39.1153 -77.3519 230° Southwest 435 501 28,000  Level Washington Center
13:53 39.0514 -77.4467 229° Southwest 429 494 28,000  Level Washington Center
13:54 38.9681 -77.5753 230° Southwest 429 494 28,000  Level Washington Center
13:55 38.8803 -77.7008 228° Southwest 429 494 28,000  Level Washington Center
13:56 38.8053 -77.8106 229° Southwest 434 499 28,000  Level Washington Center
13:57 38.7303 -77.9203 229° Southwest 434 499 28,000  Level Washington Center
13:58 38.6531 -78.0347 229° Southwest 428 493 28,000  Level Washington Center
13:59 38.5714 -78.1517 228° Southwest 428 493 28,000  Level Washington Center
14:00 38.4939 -78.2656 229° Southwest 428 493 28,000  Level Washington Center
14:01 38.4142 -78.3794 228° Southwest 428 493 28,000  Level Washington Center
14:02 38.3342 -78.4956 229° Southwest 428 493 28,000  Level Washington Center
14:03 38.2497 -78.6192 229° Southwest 428 493 28,000  Level Washington Center
14:04 38.1697 -78.7322 228° Southwest 428 493 28,000  Level Washington Center
14:05 38.0981 -78.8372 229° Southwest 433 498 28,000  Level Washington Center
14:06 38.0156 -78.9522 228° Southwest 433 498 28,000  Level Washington Center
14:07 37.9353 -79.0672 229° Southwest 439 505 28,000  Level Washington Center
14:08 37.8547 -79.1792 228° Southwest 439 505 28,000  Level Washington Center
14:09 37.7633 -79.3036 227° Southwest 439 505 28,000  Level Washington Center
14:10 37.6806 -79.4150 227° Southwest 439 505 28,000  Level Washington Center
14:11 37.5978 -79.5289 227° Southwest 444 511 28,000  Level Washington Center
14:12 37.5147 -79.6397 227° Southwest 444 511 28,000  Level Washington Center
14:13 37.4333 -79.7583 229° Southwest 449 517 28,000  Level Washington Center
14:14 37.3522 -79.8689 227° Southwest 454 522 28,000  Level Washington Center
14:16 37.2692 -79.9764 226° Southwest 448 516 28,000  Level Washington Center
14:18 37.0975 -80.2058 227° Southwest 426 490 28,000  Level Atlanta Center
14:19 37.0172 -80.3136 227° Southwest 426 490 28,000  Level Atlanta Center
14:20 36.9292 -80.4347 228° Southwest 432 497 28,000  Level Atlanta Center
14:21 36.8469 -80.5447 227° Southwest 432 497 28,000  Level Atlanta Center
14:22 36.7644 -80.6519 226° Southwest 432 497 28,000  Level Atlanta Center
14:23 36.6858 -80.7564 227° Southwest 432 497 28,000  Level Atlanta Center
14:24 36.6072 -80.8606 227° Southwest 432 497 28,000  Level Atlanta Center
14:25 36.5408 -80.9483 227° Southwest 416 479 28,000  Level Atlanta Center
14:26 36.4681 -81.0492 228° Southwest 395 455 28,000  Level Atlanta Center
14:27 36.3914 -81.1475 226° Southwest 390 449 28,000  Level Atlanta Center
14:28 36.3125 -81.2533 227° Southwest 411 473 28,000  Level Atlanta Center
14:29 36.2314 -81.3592 226° Southwest 417 480 28,000  Level Atlanta Center
14:30 36.1481 -81.4675 226° Southwest 417 480 28,000  Level Atlanta Center
14:31 36.0669 -81.5753 227° Southwest 428 493 28,000  Level Atlanta Center
14:32 35.9814 -81.6831 226° Southwest 433 498 28,000  Level Atlanta Center
14:33 35.8981 -81.7931 227° Southwest 438 504 28,000  Level Atlanta Center
14:34 35.8144 -81.8978 225° Southwest 433 498 28,000  Level Atlanta Center
14:35 35.7347 -82.0050 228° Southwest 433 498 28,000  Level Atlanta Center
14:36 35.6469 -82.1144 225° Southwest 422 486 28,000  Level Atlanta Center
14:37 35.5650 -82.2186 226° Southwest 422 486 28,000 -180 Level Atlanta Center
14:38 35.4850 -82.3197 226° Southwest 422 486 27,700 -600 Descending Atlanta Center
14:39 35.4031 -82.4208 225° Southwest 422 486 26,800 -900 Descending Atlanta Center
14:40 35.3228 -82.5192 225° Southwest 415 478 26,000 -780 Descending Atlanta Center
14:41 35.2531 -82.6044 225° Southwest 409 471 25,300 -960 Descending Atlanta Center
14:42 35.1747 -82.7047 226° Southwest 402 463 24,100 -1,620 Descending Atlanta Center
14:43 35.0967 -82.8025 226° Southwest 402 463 22,100 -1,080 Descending Atlanta Center
14:44 35.0222 -82.8950 226° Southwest 402 463 22,000 -60 Descending Atlanta Center
14:45 34.9461 -82.9922 226° Southwest 385 443 22,000  Level Atlanta Center
14:46 34.8653 -83.0742 220° Southwest 374 430 22,000  Level Atlanta Center
14:47 34.7803 -83.1511 217° Southwest 374 430 22,000  Level Atlanta Center
14:48 34.7036 -83.2303 220° Southwest 374 430 22,000  Level Atlanta Center
14:49 34.6228 -83.3144 221° Southwest 380 437 22,000  Level Atlanta Center
14:50 34.5439 -83.3958 220° Southwest 375 432 22,000 -60 Level Atlanta Center
14:51 34.4608 -83.4744 218° Southwest 375 432 21,900 -1,080 Descending Atlanta Center
14:52 34.3922 -83.5453 220° Southwest 375 432 19,900 -2,100 Descending Atlanta Center
14:53 34.3175 -83.6189 219° Southwest 367 422 17,800 -1,980 Descending Atlanta Center
14:54 34.2528 -83.6819 219° Southwest 333 383 16,000 -1,680 Descending Atlanta Center
14:55 34.1925 -83.7425 220° Southwest 297 342 14,500 -1,500 Descending Atlanta Center
14:56 34.1364 -83.7978 219° Southwest 273 314 13,000 -1,260 Descending Atlanta Center
14:57 34.0758 -83.8558 218° Southwest 273 314 12,000 -1,020 Descending Atlanta Center
14:57 34.0500 -83.8833 221° Southwest 262 302 11,600 -1,140 Descending Atlanta TRACON
14:58 34.0000 -83.9333 220° Southwest 253 291 10,500 -1,260 Descending Atlanta TRACON
14:59 33.9333 -83.9500 192° South 268 308 9,100 -780 Descending Atlanta TRACON
15:00 33.8500 -83.9500 180° South 263 303 9,000 -120 Descending Atlanta TRACON
15:01 33.8108 -83.9539 185° South 260 299 9,000 -780 Level Atlanta Center
15:02 33.7400 -83.9514 178° South 260 299 7,800 -1,320 Descending Atlanta Center
15:03 33.6711 -83.9689 192° South 260 299 6,400 -600 Descending Atlanta Center
15:05 33.6333 -84.0833 248° West 187 215 6,000 -360 Descending Atlanta TRACON
15:06 33.6333 -84.1500 270° West 190 219 5,300 -960 Descending Atlanta TRACON
15:07 33.6333 -84.2167 270° West 182 209 4,100 -1,080 Descending Atlanta TRACON
15:08 33.6333 -84.2833 270° West 185 213 3,200 -900 Descending Atlanta TRACON
15:09 33.6333 -84.3333 270° West 178 205 2,300 -900 Descending Atlanta TRACON
15:10 33.6333 -84.3833 270° West 146 168 1,500 -840 Descending Atlanta TRACON
15:12 33.6367 -84.4279 270° West  Level Estimated
15:19 33.6367 -84.4279 64° Northeast  Level Estimated